Island Lake, Wisconsin
Current Conditions -  °F | °C
As of 11:15 AM on Friday 24 Oct 2014 (Local Time) from KY23 Reporting Station
Overcast Overcast  
Wind Chill: 52°   Ceiling: 500
Heat Index: 52°   Visibility: 10mi
Dew Point: 49°   Wind: 9mph
Humidity: 91%   Direction: 130°SE
Pressure: 29.92"   Gusts: NA
Location:  45.2376°N, 91.504°W
Report Text: KY23 241615Z AUTO 13008KT 10SM OVC005 11/10 A2992 RMK AO2 T01100096
Loading
Personal Weather Stations






























Interactive Weather Map
Tropical Storm Tracking
New forecast layout! Learn more

10-Day Weather Forecast

Advertisements
Track Severe Weather on mobile